sensor_id;sensor_type;location;lat;lon;timestamp;pressure;altitude;pressure_sealevel;temperature;humidity
73063;BME280;61230;46.328;19.972;2024-03-17T00:00:25;100808.25;;;9.46;100.00
73063;BME280;61230;46.328;19.972;2024-03-17T00:02:52;100814.34;;;9.46;100.00
73063;BME280;61230;46.328;19.972;2024-03-17T00:05:19;100810.63;;;9.49;100.00
73063;BME280;61230;46.328;19.972;2024-03-17T00:07:45;100749.63;;;9.13;100.00
73063;BME280;61230;46.328;19.972;2024-03-17T00:10:12;100812.16;;;9.51;100.00
73063;BME280;61230;46.328;19.972;2024-03-17T00:12:38;100774.62;;;9.29;100.00
73063;BME280;61230;46.328;19.972;2024-03-17T00:15:05;100820.78;;;9.53;100.00
73063;BME280;61230;46.328;19.972;2024-03-17T00:17:33;100770.91;;;9.31;100.00
73063;BME280;61230;46.328;19.972;2024-03-17T00:20:01;100810.59;;;9.60;100.00
73063;BME280;61230;46.328;19.972;2024-03-17T00:22:30;100816.69;;;9.60;100.00
73063;BME280;61230;46.328;19.972;2024-03-17T00:25:01;100775.56;;;9.39;100.00
73063;BME280;61230;46.328;19.972;2024-03-17T00:27:28;100812.47;;;9.69;100.00
73063;BME280;61230;46.328;19.972;2024-03-17T00:29:55;100810.44;;;9.72;100.00
73063;BME280;61230;46.328;19.972;2024-03-17T00:32:21;100773.84;;;9.49;100.00
73063;BME280;61230;46.328;19.972;2024-03-17T00:34:49;100817.34;;;9.73;100.00
73063;BME280;61230;46.328;19.972;2024-03-17T00:37:16;100816.41;;;9.74;100.00
73063;BME280;61230;46.328;19.972;2024-03-17T00:39:44;100812.56;;;9.78;100.00
73063;BME280;61230;46.328;19.972;2024-03-17T00:42:10;100813.00;;;9.83;100.00
73063;BME280;61230;46.328;19.972;2024-03-17T00:44:37;100812.75;;;9.87;100.00
73063;BME280;61230;46.328;19.972;2024-03-17T00:47:04;100807.50;;;9.87;100.00
73063;BME280;61230;46.328;19.972;2024-03-17T00:49:30;100792.50;;;9.77;100.00
73063;BME280;61230;46.328;19.972;2024-03-17T00:51:57;100804.88;;;9.87;100.00
73063;BME280;61230;46.328;19.972;2024-03-17T00:54:23;100803.19;;;9.86;100.00
73063;BME280;61230;46.328;19.972;2024-03-17T00:56:50;100768.44;;;9.61;100.00
73063;BME280;61230;46.328;19.972;2024-03-17T00:59:17;100764.12;;;9.60;100.00
73063;BME280;61230;46.328;19.972;2024-03-17T01:01:44;100818.88;;;9.87;100.00
73063;BME280;61230;46.328;19.972;2024-03-17T01:04:11;100811.69;;;9.89;100.00
73063;BME280;61230;46.328;19.972;2024-03-17T01:06:37;100809.03;;;9.89;100.00
73063;BME280;61230;46.328;19.972;2024-03-17T01:09:07;100799.37;;;9.90;100.00
73063;BME280;61230;46.328;19.972;2024-03-17T01:11:35;100807.13;;;9.91;100.00
73063;BME280;61230;46.328;19.972;2024-03-17T01:14:01;100802.44;;;9.95;100.00
73063;BME280;61230;46.328;19.972;2024-03-17T01:16:28;100795.41;;;9.95;100.00
73063;BME280;61230;46.328;19.972;2024-03-17T01:18:54;100802.44;;;9.95;100.00
73063;BME280;61230;46.328;19.972;2024-03-17T01:21:21;100802.00;;;9.90;100.00
73063;BME280;61230;46.328;19.972;2024-03-17T01:23:49;100793.97;;;9.91;100.00
73063;BME280;61230;46.328;19.972;2024-03-17T01:26:16;100807.25;;;9.90;100.00
73063;BME280;61230;46.328;19.972;2024-03-17T01:28:42;100801.03;;;9.91;100.00
73063;BME280;61230;46.328;19.972;2024-03-17T01:31:09;100806.41;;;9.89;100.00
73063;BME280;61230;46.328;19.972;2024-03-17T01:33:35;100803.09;;;9.87;100.00
73063;BME280;61230;46.328;19.972;2024-03-17T01:36:02;100803.09;;;9.87;100.00
73063;BME280;61230;46.328;19.972;2024-03-17T01:38:29;100798.78;;;9.86;100.00
73063;BME280;61230;46.328;19.972;2024-03-17T01:40:55;100799.19;;;9.81;100.00
73063;BME280;61230;46.328;19.972;2024-03-17T01:43:22;100799.28;;;9.80;100.00
73063;BME280;61230;46.328;19.972;2024-03-17T01:45:50;100798.44;;;9.79;100.00
73063;BME280;61230;46.328;19.972;2024-03-17T01:48:16;100789.41;;;9.72;100.00
73063;BME280;61230;46.328;19.972;2024-03-17T01:50:48;100799.69;;;9.75;100.00
73063;BME280;61230;46.328;19.972;2024-03-17T01:53:16;100794.41;;;9.75;100.00
73063;BME280;61230;46.328;19.972;2024-03-17T01:55:43;100793.69;;;9.73;100.00
73063;BME280;61230;46.328;19.972;2024-03-17T01:58:11;100797.41;;;9.71;100.00
73063;BME280;61230;46.328;19.972;2024-03-17T02:00:37;100802.56;;;9.72;100.00
73063;BME280;61230;46.328;19.972;2024-03-17T02:03:05;100797.41;;;9.71;100.00
73063;BME280;61230;46.328;19.972;2024-03-17T02:05:32;100798.12;;;9.73;100.00
73063;BME280;61230;46.328;19.972;2024-03-17T02:08:00;100805.03;;;9.74;100.00
73063;BME280;61230;46.328;19.972;2024-03-17T02:10:28;100810.28;;;9.74;100.00
73063;BME280;61230;46.328;19.972;2024-03-17T02:12:54;100811.03;;;9.76;100.00
73063;BME280;61230;46.328;19.972;2024-03-17T02:15:21;100803.94;;;9.76;100.00
73063;BME280;61230;46.328;19.972;2024-03-17T02:17:48;100767.50;;;9.51;100.00
73063;BME280;61230;46.328;19.972;2024-03-17T02:20:15;100804.09;;;9.75;100.00
73063;BME280;61230;46.328;19.972;2024-03-17T02:22:41;100811.38;;;9.71;100.00
73063;BME280;61230;46.328;19.972;2024-03-17T02:25:08;100816.28;;;9.76;100.00
73063;BME280;61230;46.328;19.972;2024-03-17T02:27:35;100803.41;;;9.73;100.00
73063;BME280;61230;46.328;19.972;2024-03-17T02:30:03;100801.03;;;9.70;100.00
73063;BME280;61230;46.328;19.972;2024-03-17T02:32:35;100809.59;;;9.72;100.00
73063;BME280;61230;46.328;19.972;2024-03-17T02:35:02;100800.19;;;9.69;100.00
73063;BME280;61230;46.328;19.972;2024-03-17T02:37:31;100799.47;;;9.67;100.00
73063;BME280;61230;46.328;19.972;2024-03-17T02:39:58;100812.63;;;9.67;100.00
73063;BME280;61230;46.328;19.972;2024-03-17T02:42:25;100807.56;;;9.75;100.00
73063;BME280;61230;46.328;19.972;2024-03-17T02:44:51;100808.25;;;9.77;100.00
73063;BME280;61230;46.328;19.972;2024-03-17T02:47:18;100807.16;;;9.80;100.00
73063;BME280;61230;46.328;19.972;2024-03-17T02:49:45;100809.34;;;9.75;100.00
73063;BME280;61230;46.328;19.972;2024-03-17T02:52:16;100813.66;;;9.76;100.00
73063;BME280;61230;46.328;19.972;2024-03-17T02:54:43;100803.00;;;9.77;100.00
73063;BME280;61230;46.328;19.972;2024-03-17T02:57:09;100798.44;;;9.79;100.00
73063;BME280;61230;46.328;19.972;2024-03-17T02:59:36;100801.66;;;9.83;100.00
73063;BME280;61230;46.328;19.972;2024-03-17T03:02:03;100803.94;;;9.76;100.00
73063;BME280;61230;46.328;19.972;2024-03-17T03:04:29;100728.22;;;9.29;100.00
73063;BME280;61230;46.328;19.972;2024-03-17T03:06:56;100803.25;;;9.74;100.00
73063;BME280;61230;46.328;19.972;2024-03-17T03:09:23;100796.81;;;9.78;100.00
73063;BME280;61230;46.328;19.972;2024-03-17T03:11:58;100794.41;;;9.75;100.00
73063;BME280;61230;46.328;19.972;2024-03-17T03:14:30;100796.31;;;9.73;100.00
73063;BME280;61230;46.328;19.972;2024-03-17T03:16:56;100802.31;;;9.75;100.00
73063;BME280;61230;46.328;19.972;2024-03-17T03:19:23;100798.84;;;9.75;100.00
73063;BME280;61230;46.328;19.972;2024-03-17T03:21:50;100800.53;;;9.76;100.00
73063;BME280;61230;46.328;19.972;2024-03-17T03:24:16;100802.66;;;9.71;100.00
73063;BME280;61230;46.328;19.972;2024-03-17T03:26:43;100802.81;;;9.69;100.00
73063;BME280;61230;46.328;19.972;2024-03-17T03:29:10;100805.19;;;9.72;100.00
73063;BME280;61230;46.328;19.972;2024-03-17T03:31:37;100801.84;;;9.70;100.00
73063;BME280;61230;46.328;19.972;2024-03-17T03:34:05;100757.50;;;9.45;100.00
73063;BME280;61230;46.328;19.972;2024-03-17T03:36:35;100803.50;;;9.71;100.00
73063;BME280;61230;46.328;19.972;2024-03-17T03:39:03;100814.72;;;9.73;100.00
73063;BME280;61230;46.328;19.972;2024-03-17T03:41:31;100802.56;;;9.72;100.00
73063;BME280;61230;46.328;19.972;2024-03-17T03:43:59;100799.72;;;9.64;100.00
73063;BME280;61230;46.328;19.972;2024-03-17T03:46:25;100800.63;;;9.74;100.00
73063;BME280;61230;46.328;19.972;2024-03-17T03:48:53;100804.94;;;9.75;100.00
73063;BME280;61230;46.328;19.972;2024-03-17T03:51:19;100764.78;;;9.53;100.00
73063;BME280;61230;46.328;19.972;2024-03-17T03:53:46;100796.06;;;9.76;100.00
73063;BME280;61230;46.328;19.972;2024-03-17T03:56:12;100809.59;;;9.72;100.00
73063;BME280;61230;46.328;19.972;2024-03-17T03:58:39;100805.88;;;9.74;100.00
73063;BME280;61230;46.328;19.972;2024-03-17T04:01:07;100810.53;;;9.71;100.00
73063;BME280;61230;46.328;19.972;2024-03-17T04:03:35;100811.03;;;9.65;100.00
73063;BME280;61230;46.328;19.972;2024-03-17T04:06:06;100814.66;;;9.64;100.00
73063;BME280;61230;46.328;19.972;2024-03-17T04:08:33;100817.38;;;9.62;100.00
73063;BME280;61230;46.328;19.972;2024-03-17T04:11:01;100811.19;;;9.63;100.00
73063;BME280;61230;46.328;19.972;2024-03-17T04:13:29;100834.81;;;9.63;100.00
73063;BME280;61230;46.328;19.972;2024-03-17T04:15:56;100824.56;;;9.60;100.00
73063;BME280;61230;46.328;19.972;2024-03-17T04:18:26;100825.41;;;9.61;100.00
73063;BME280;61230;46.328;19.972;2024-03-17T04:20:53;100831.59;;;9.60;100.00
73063;BME280;61230;46.328;19.972;2024-03-17T04:23:20;100824.56;;;9.60;100.00
73063;BME280;61230;46.328;19.972;2024-03-17T04:25:49;100826.59;;;9.57;100.00
73063;BME280;61230;46.328;19.972;2024-03-17T04:28:16;100825.78;;;9.56;100.00
73063;BME280;61230;46.328;19.972;2024-03-17T04:30:43;100825.78;;;9.56;100.00
73063;BME280;61230;46.328;19.972;2024-03-17T04:33:10;100829.59;;;9.52;100.00
73063;BME280;61230;46.328;19.972;2024-03-17T04:35:38;100829.72;;;9.51;100.00
73063;BME280;61230;46.328;19.972;2024-03-17T04:38:05;100837.97;;;9.46;100.00
73063;BME280;61230;46.328;19.972;2024-03-17T04:40:33;100800.06;;;9.17;100.00
73063;BME280;61230;46.328;19.972;2024-03-17T04:43:00;100847.44;;;9.38;100.00
73063;BME280;61230;46.328;19.972;2024-03-17T04:45:27;100846.25;;;9.31;100.00
73063;BME280;61230;46.328;19.972;2024-03-17T04:47:53;100806.66;;;9.00;100.00
73063;BME280;61230;46.328;19.972;2024-03-17T04:50:20;100856.88;;;9.18;100.00
73063;BME280;61230;46.328;19.972;2024-03-17T04:52:47;100828.03;;;8.96;100.00
73063;BME280;61230;46.328;19.972;2024-03-17T04:55:15;100819.56;;;8.81;100.00
73063;BME280;61230;46.328;19.972;2024-03-17T04:57:44;100856.66;;;8.99;100.00
73063;BME280;61230;46.328;19.972;2024-03-17T05:00:11;100858.09;;;8.92;100.00
73063;BME280;61230;46.328;19.972;2024-03-17T05:02:40;100862.75;;;8.88;100.00
73063;BME280;61230;46.328;19.972;2024-03-17T05:05:07;100828.16;;;8.61;100.00
73063;BME280;61230;46.328;19.972;2024-03-17T05:07:37;100864.66;;;8.75;100.00
73063;BME280;61230;46.328;19.972;2024-03-17T05:10:04;100869.06;;;8.75;100.00
73063;BME280;61230;46.328;19.972;2024-03-17T05:12:32;100872.75;;;8.72;100.00
73063;BME280;61230;46.328;19.972;2024-03-17T05:14:59;100838.03;;;8.46;100.00
73063;BME280;61230;46.328;19.972;2024-03-17T05:17:25;100872.97;;;8.69;100.00
73063;BME280;61230;46.328;19.972;2024-03-17T05:19:52;100888.00;;;8.67;100.00
73063;BME280;61230;46.328;19.972;2024-03-17T05:22:18;100879.53;;;8.63;100.00
73063;BME280;61230;46.328;19.972;2024-03-17T05:24:45;100886.47;;;8.64;100.00
73063;BME280;61230;46.328;19.972;2024-03-17T05:27:12;100895.03;;;8.66;100.00
73063;BME280;61230;46.328;19.972;2024-03-17T05:29:38;100898.37;;;8.68;100.00
73063;BME280;61230;46.328;19.972;2024-03-17T05:32:05;100905.53;;;8.66;100.00
73063;BME280;61230;46.328;19.972;2024-03-17T05:34:32;100905.31;;;8.70;100.00
73063;BME280;61230;46.328;19.972;2024-03-17T05:36:59;100866.78;;;8.48;100.00
73063;BME280;61230;46.328;19.972;2024-03-17T05:39:26;100910.31;;;8.73;100.00
73063;BME280;61230;46.328;19.972;2024-03-17T05:41:52;100910.19;;;8.74;100.00
73063;BME280;61230;46.328;19.972;2024-03-17T05:44:19;100920.97;;;8.82;100.00
73063;BME280;61230;46.328;19.972;2024-03-17T05:46:46;100877.66;;;8.65;100.00
73063;BME280;61230;46.328;19.972;2024-03-17T05:49:12;100882.53;;;8.70;100.00
73063;BME280;61230;46.328;19.972;2024-03-17T05:51:39;100930.88;;;9.01;100.00
73063;BME280;61230;46.328;19.972;2024-03-17T05:54:07;100931.09;;;9.09;100.00
73063;BME280;61230;46.328;19.972;2024-03-17T05:56:33;100929.69;;;9.16;100.00
73063;BME280;61230;46.328;19.972;2024-03-17T05:59:01;100939.97;;;9.19;100.00
73063;BME280;61230;46.328;19.972;2024-03-17T06:01:28;100919.66;;;9.10;100.00
73063;BME280;61230;46.328;19.972;2024-03-17T06:03:57;100941.59;;;9.31;100.00
73063;BME280;61230;46.328;19.972;2024-03-17T06:06:25;100943.75;;;9.37;100.00
73063;BME280;61230;46.328;19.972;2024-03-17T06:08:52;100949.75;;;9.39;100.00
73063;BME280;61230;46.328;19.972;2024-03-17T06:11:19;100955.47;;;9.44;100.00
73063;BME280;61230;46.328;19.972;2024-03-17T06:13:45;100967.38;;;9.48;100.00
73063;BME280;61230;46.328;19.972;2024-03-17T06:16:12;100961.78;;;9.53;100.00
73063;BME280;61230;46.328;19.972;2024-03-17T06:18:39;100925.63;;;9.34;100.00
73063;BME280;61230;46.328;19.972;2024-03-17T06:21:05;100965.34;;;9.63;100.00
73063;BME280;61230;46.328;19.972;2024-03-17T06:23:32;100967.75;;;9.66;100.00
73063;BME280;61230;46.328;19.972;2024-03-17T06:25:58;100923.47;;;9.50;100.00
73063;BME280;61230;46.328;19.972;2024-03-17T06:28:25;100963.31;;;9.77;100.00
73063;BME280;61230;46.328;19.972;2024-03-17T06:30:59;100967.38;;;9.81;100.00
73063;BME280;61230;46.328;19.972;2024-03-17T06:33:26;100967.94;;;9.85;100.00
73063;BME280;61230;46.328;19.972;2024-03-17T06:35:54;100965.56;;;9.93;100.00
73063;BME280;61230;46.328;19.972;2024-03-17T06:38:21;100964.38;;;9.86;100.00
73063;BME280;61230;46.328;19.972;2024-03-17T06:40:49;100977.38;;;9.99;100.00
73063;BME280;61230;46.328;19.972;2024-03-17T06:43:17;100983.09;;;10.04;100.00
73063;BME280;61230;46.328;19.972;2024-03-17T06:45:44;100981.16;;;10.06;100.00
73063;BME280;61230;46.328;19.972;2024-03-17T06:48:10;100980.06;;;10.08;100.00
73063;BME280;61230;46.328;19.972;2024-03-17T06:50:38;100988.09;;;10.07;100.00
73063;BME280;61230;46.328;19.972;2024-03-17T06:53:08;100983.41;;;10.10;100.00
73063;BME280;61230;46.328;19.972;2024-03-17T06:55:35;100982.84;;;10.18;100.00
73063;BME280;61230;46.328;19.972;2024-03-17T06:58:02;100987.59;;;10.24;100.00
73063;BME280;61230;46.328;19.972;2024-03-17T07:00:29;100986.97;;;10.31;100.00
73063;BME280;61230;46.328;19.972;2024-03-17T07:02:56;100958.72;;;10.13;100.00
73063;BME280;61230;46.328;19.972;2024-03-17T07:05:23;100994.56;;;10.46;100.00
73063;BME280;61230;46.328;19.972;2024-03-17T07:07:50;101002.13;;;10.39;100.00
73063;BME280;61230;46.328;19.972;2024-03-17T07:10:18;101001.53;;;10.47;100.00
73063;BME280;61230;46.328;19.972;2024-03-17T07:12:44;101013.09;;;10.55;100.00
73063;BME280;61230;46.328;19.972;2024-03-17T07:15:11;101001.31;;;10.59;100.00
73063;BME280;61230;46.328;19.972;2024-03-17T07:17:38;101008.34;;;10.70;100.00
73063;BME280;61230;46.328;19.972;2024-03-17T07:20:05;100997.44;;;10.74;100.00
73063;BME280;61230;46.328;19.972;2024-03-17T07:22:35;101006.28;;;10.73;100.00
73063;BME280;61230;46.328;19.972;2024-03-17T07:25:01;100996.22;;;10.78;100.00
73063;BME280;61230;46.328;19.972;2024-03-17T07:27:28;100996.09;;;10.80;100.00
73063;BME280;61230;46.328;19.972;2024-03-17T07:29:55;100999.16;;;10.85;100.00
73063;BME280;61230;46.328;19.972;2024-03-17T07:32:22;101002.91;;;10.82;95.12
73063;BME280;61230;46.328;19.972;2024-03-17T07:34:49;101013.31;;;10.84;92.99
73063;BME280;61230;46.328;19.972;2024-03-17T07:37:17;101007.00;;;10.96;94.30
73063;BME280;61230;46.328;19.972;2024-03-17T07:39:43;100999.69;;;11.00;93.28
73063;BME280;61230;46.328;19.972;2024-03-17T07:42:10;100989.59;;;11.05;93.23
73063;BME280;61230;46.328;19.972;2024-03-17T07:44:38;100952.53;;;10.96;91.55
73063;BME280;61230;46.328;19.972;2024-03-17T07:47:05;101013.69;;;11.21;87.27
73063;BME280;61230;46.328;19.972;2024-03-17T07:49:31;101008.84;;;11.26;84.64
73063;BME280;61230;46.328;19.972;2024-03-17T07:51:58;100994.66;;;11.38;78.82
73063;BME280;61230;46.328;19.972;2024-03-17T07:54:25;101010.00;;;11.33;73.26
73063;BME280;61230;46.328;19.972;2024-03-17T07:56:53;101003.25;;;11.40;72.98
73063;BME280;61230;46.328;19.972;2024-03-17T07:59:19;101007.06;;;11.57;73.68
73063;BME280;61230;46.328;19.972;2024-03-17T08:01:46;100981.50;;;11.47;70.04
73063;BME280;61230;46.328;19.972;2024-03-17T08:04:13;100997.34;;;11.57;69.48
73063;BME280;61230;46.328;19.972;2024-03-17T08:06:39;100990.72;;;11.63;71.04
73063;BME280;61230;46.328;19.972;2024-03-17T08:09:10;100987.16;;;11.73;71.48
73063;BME280;61230;46.328;19.972;2024-03-17T08:11:38;101000.28;;;11.64;69.31
73063;BME280;61230;46.328;19.972;2024-03-17T08:14:09;101005.44;;;11.65;67.93
73063;BME280;61230;46.328;19.972;2024-03-17T08:16:36;101004.16;;;11.60;67.97
73063;BME280;61230;46.328;19.972;2024-03-17T08:19:03;101001.62;;;11.58;67.15
73063;BME280;61230;46.328;19.972;2024-03-17T08:21:29;101004.41;;;11.57;65.42
73063;BME280;61230;46.328;19.972;2024-03-17T08:23:56;100996.00;;;11.63;66.52
73063;BME280;61230;46.328;19.972;2024-03-17T08:26:23;101023.63;;;11.68;64.90
73063;BME280;61230;46.328;19.972;2024-03-17T08:28:50;101006.47;;;11.74;66.12
73063;BME280;61230;46.328;19.972;2024-03-17T08:31:16;101002.41;;;11.70;64.61
73063;BME280;61230;46.328;19.972;2024-03-17T08:33:43;100956.25;;;11.45;64.28
73063;BME280;61230;46.328;19.972;2024-03-17T08:36:09;100984.69;;;11.81;66.28
73063;BME280;61230;46.328;19.972;2024-03-17T08:38:37;100985.56;;;11.91;62.37
73063;BME280;61230;46.328;19.972;2024-03-17T08:41:05;100996.19;;;11.71;61.72
73063;BME280;61230;46.328;19.972;2024-03-17T08:43:32;100978.91;;;11.67;62.41
73063;BME280;61230;46.328;19.972;2024-03-17T08:48:28;101001.66;;;11.88;63.66
73063;BME280;61230;46.328;19.972;2024-03-17T08:50:59;100915.56;;;11.28;63.48
73063;BME280;61230;46.328;19.972;2024-03-17T08:53:26;100989.03;;;11.92;65.65
73063;BME280;61230;46.328;19.972;2024-03-17T08:55:53;100985.00;;;11.88;64.91
73063;BME280;61230;46.328;19.972;2024-03-17T08:58:20;100991.53;;;11.93;66.91
73063;BME280;61230;46.328;19.972;2024-03-17T09:00:47;100992.50;;;11.92;65.54
73063;BME280;61230;46.328;19.972;2024-03-17T09:03:14;100982.66;;;11.94;64.94
73063;BME280;61230;46.328;19.972;2024-03-17T09:05:43;100983.91;;;12.00;65.69
73063;BME280;61230;46.328;19.972;2024-03-17T09:08:20;100980.59;;;12.07;66.91
73063;BME280;61230;46.328;19.972;2024-03-17T09:10:49;100985.19;;;12.25;66.58
73063;BME280;61230;46.328;19.972;2024-03-17T09:13:26;100943.09;;;12.04;63.82
73063;BME280;61230;46.328;19.972;2024-03-17T09:15:58;100979.34;;;12.40;64.33
73063;BME280;61230;46.328;19.972;2024-03-17T09:18:29;100991.44;;;12.24;61.80
73063;BME280;61230;46.328;19.972;2024-03-17T09:21:00;100963.78;;;11.99;59.75
73063;BME280;61230;46.328;19.972;2024-03-17T09:23:30;100986.16;;;12.24;59.90
73063;BME280;61230;46.328;19.972;2024-03-17T09:25:58;100996.84;;;12.13;60.09
73063;BME280;61230;46.328;19.972;2024-03-17T09:28:25;101005.31;;;12.16;58.50
73063;BME280;61230;46.328;19.972;2024-03-17T09:30:56;100982.00;;;12.31;59.06
73063;BME280;61230;46.328;19.972;2024-03-17T09:33:23;100991.16;;;12.46;59.56
73063;BME280;61230;46.328;19.972;2024-03-17T09:38:23;101006.19;;;12.45;56.44
73063;BME280;61230;46.328;19.972;2024-03-17T09:40:50;100962.00;;;12.28;57.44
73063;BME280;61230;46.328;19.972;2024-03-17T09:43:22;100981.19;;;12.59;56.78
73063;BME280;61230;46.328;19.972;2024-03-17T09:45:49;101002.69;;;12.54;56.18
73063;BME280;61230;46.328;19.972;2024-03-17T09:48:20;100980.91;;;12.52;57.31
73063;BME280;61230;46.328;19.972;2024-03-17T09:50:52;101019.25;;;12.47;57.27
73063;BME280;61230;46.328;19.972;2024-03-17T09:53:39;100989.66;;;12.53;56.97
73063;BME280;61230;46.328;19.972;2024-03-17T09:56:13;101004.94;;;12.49;56.23
73063;BME280;61230;46.328;19.972;2024-03-17T09:58:49;100969.09;;;12.28;56.32
73063;BME280;61230;46.328;19.972;2024-03-17T10:01:16;100986.06;;;12.54;56.80
73063;BME280;61230;46.328;19.972;2024-03-17T10:03:53;100997.13;;;12.57;57.39
73063;BME280;61230;46.328;19.972;2024-03-17T10:06:27;100985.19;;;12.63;57.87
73063;BME280;61230;46.328;19.972;2024-03-17T10:08:59;100993.25;;;12.81;58.55
73063;BME280;61230;46.328;19.972;2024-03-17T10:11:34;100987.50;;;12.95;56.94
73063;BME280;61230;46.328;19.972;2024-03-17T10:14:06;100989.87;;;12.98;53.50
73063;BME280;61230;46.328;19.972;2024-03-17T10:16:36;100979.84;;;13.20;54.27
73063;BME280;61230;46.328;19.972;2024-03-17T10:21:42;100971.34;;;13.17;52.71
73063;BME280;61230;46.328;19.972;2024-03-17T10:24:12;100973.41;;;13.33;52.81
73063;BME280;61230;46.328;19.972;2024-03-17T10:26:48;100961.72;;;13.25;54.71
73063;BME280;61230;46.328;19.972;2024-03-17T10:31:57;100967.09;;;13.43;52.22
73063;BME280;61230;46.328;19.972;2024-03-17T10:34:26;100970.03;;;13.40;51.96
73063;BME280;61230;46.328;19.972;2024-03-17T10:37:08;100972.37;;;13.43;50.45
73063;BME280;61230;46.328;19.972;2024-03-17T10:39:39;100966.88;;;13.64;51.51
73063;BME280;61230;46.328;19.972;2024-03-17T10:42:08;100978.34;;;13.82;53.30
73063;BME280;61230;46.328;19.972;2024-03-17T10:44:36;100982.84;;;13.72;48.39
73063;BME280;61230;46.328;19.972;2024-03-17T10:47:04;100960.53;;;13.74;47.10
73063;BME280;61230;46.328;19.972;2024-03-17T10:49:37;100959.50;;;13.85;46.57
73063;BME280;61230;46.328;19.972;2024-03-17T10:52:07;100921.97;;;13.81;48.72
73063;BME280;61230;46.328;19.972;2024-03-17T10:54:34;100956.34;;;13.99;47.68
73063;BME280;61230;46.328;19.972;2024-03-17T10:57:11;100978.34;;;13.82;47.19
73063;BME280;61230;46.328;19.972;2024-03-17T10:59:47;100932.03;;;13.51;46.51
73063;BME280;61230;46.328;19.972;2024-03-17T11:02:22;100961.28;;;13.67;46.72
73063;BME280;61230;46.328;19.972;2024-03-17T11:04:54;100946.25;;;13.67;45.91
73063;BME280;61230;46.328;19.972;2024-03-17T11:07:22;100979.41;;;13.89;42.32
73063;BME280;61230;46.328;19.972;2024-03-17T11:09:50;100989.69;;;13.92;42.64
73063;BME280;61230;46.328;19.972;2024-03-17T11:12:40;100981.84;;;14.00;43.01
73063;BME280;61230;46.328;19.972;2024-03-17T11:17:54;100966.72;;;13.93;42.69
73063;BME280;61230;46.328;19.972;2024-03-17T11:20:25;100966.94;;;13.81;42.78
73063;BME280;61230;46.328;19.972;2024-03-17T11:22:58;100958.81;;;13.83;41.29
73063;BME280;61230;46.328;19.972;2024-03-17T11:27:58;100968.69;;;14.08;40.15
73063;BME280;61230;46.328;19.972;2024-03-17T11:41:42;100961.03;;;14.05;37.74
73063;BME280;61230;46.328;19.972;2024-03-17T11:46:45;100925.22;;;14.11;39.46
73063;BME280;61230;46.328;19.972;2024-03-17T11:49:21;100916.31;;;14.12;39.62
73063;BME280;61230;46.328;19.972;2024-03-17T11:51:50;100909.88;;;14.14;37.82
73063;BME280;61230;46.328;19.972;2024-03-17T11:54:19;100938.19;;;14.49;37.83
73063;BME280;61230;46.328;19.972;2024-03-17T11:56:51;100947.66;;;14.77;38.48
73063;BME280;61230;46.328;19.972;2024-03-17T11:59:18;100953.22;;;14.49;38.02
73063;BME280;61230;46.328;19.972;2024-03-17T12:01:47;100943.69;;;14.56;38.90
73063;BME280;61230;46.328;19.972;2024-03-17T12:04:15;100940.66;;;14.51;35.94
73063;BME280;61230;46.328;19.972;2024-03-17T12:06:46;100944.00;;;14.53;35.67
73063;BME280;61230;46.328;19.972;2024-03-17T12:09:19;100927.63;;;14.75;37.10
73063;BME280;61230;46.328;19.972;2024-03-17T12:14:20;100932.59;;;14.34;37.13
73063;BME280;61230;46.328;19.972;2024-03-17T12:16:48;100934.16;;;14.45;36.04
73063;BME280;61230;46.328;19.972;2024-03-17T12:19:16;100915.03;;;14.77;35.14
73063;BME280;61230;46.328;19.972;2024-03-17T12:21:48;100927.03;;;15.15;35.40
73063;BME280;61230;46.328;19.972;2024-03-17T12:24:21;100924.69;;;14.60;33.75
73063;BME280;61230;46.328;19.972;2024-03-17T12:26:49;100914.16;;;14.68;34.10
73063;BME280;61230;46.328;19.972;2024-03-17T12:29:34;100908.72;;;14.70;35.39
73063;BME280;61230;46.328;19.972;2024-03-17T12:32:13;100905.97;;;14.62;36.12
73063;BME280;61230;46.328;19.972;2024-03-17T12:34:45;100902.00;;;14.58;37.12
73063;BME280;61230;46.328;19.972;2024-03-17T12:37:22;100914.97;;;14.69;36.64
73063;BME280;61230;46.328;19.972;2024-03-17T12:39:49;100867.37;;;14.33;37.45
73063;BME280;61230;46.328;19.972;2024-03-17T12:42:23;100897.47;;;14.50;38.13
73063;BME280;61230;46.328;19.972;2024-03-17T12:47:29;100855.59;;;14.79;36.25
73063;BME280;61230;46.328;19.972;2024-03-17T12:50:00;100890.50;;;14.49;35.86
73063;BME280;61230;46.328;19.972;2024-03-17T12:52:28;100869.78;;;14.70;36.68
73063;BME280;61230;46.328;19.972;2024-03-17T12:55:05;100864.66;;;14.69;33.79
73063;BME280;61230;46.328;19.972;2024-03-17T12:58:11;100904.19;;;14.88;33.62
73063;BME280;61230;46.328;19.972;2024-03-17T13:03:25;100907.38;;;14.48;35.04
73063;BME280;61230;46.328;19.972;2024-03-17T13:05:52;100893.94;;;14.42;35.09
73063;BME280;61230;46.328;19.972;2024-03-17T13:08:18;100902.97;;;14.57;36.25
73063;BME280;61230;46.328;19.972;2024-03-17T13:10:45;100910.91;;;14.57;34.75
73063;BME280;61230;46.328;19.972;2024-03-17T13:13:12;100892.25;;;14.58;34.93
73063;BME280;61230;46.328;19.972;2024-03-17T13:15:43;100896.69;;;14.58;35.95
73063;BME280;61230;46.328;19.972;2024-03-17T13:18:16;100874.00;;;14.55;36.01
73063;BME280;61230;46.328;19.972;2024-03-17T13:20:45;100907.91;;;14.34;35.09
73063;BME280;61230;46.328;19.972;2024-03-17T13:23:12;100905.34;;;14.42;36.25